Time;durP1;ratioP1;P1;durP2;ratioP2;P2;SDS_P1;SDS_P2;PMS_P1;PMS_P2;Temp;Humidity;BMP_temperature;BMP_pressure;BME280_temperature;BME280_humidity;BME280_pressure;Samples;Min_cycle;Max_cycle;Signal;HPM_P1;HPM_P2
2022/11/02 00:01:21;;;;;;;9.00;1.95;;;12.80;99.90;;;;;;5000885;28;20542;-66
2022/11/02 00:03:47;;;;;;;6.63;1.90;;;13.00;99.90;;;;;;5003065;28;20046;-64
2022/11/02 00:06:13;;;;;;;12.70;2.47;;;12.90;99.90;;;;;;5018596;28;20047;-65
2022/11/02 00:08:39;;;;;;;9.95;1.73;;;12.80;99.90;;;;;;5021397;28;20547;-65
2022/11/02 00:11:04;;;;;;;8.63;1.90;;;12.90;99.90;;;;;;5004490;28;20436;-65
2022/11/02 00:13:30;;;;;;;8.98;2.05;;;12.90;99.90;;;;;;5022349;28;20041;-65
2022/11/02 00:15:57;;;;;;;10.00;2.20;;;12.90;99.90;;;;;;5021526;28;20467;-64
2022/11/02 00:18:22;;;;;;;7.03;1.33;;;12.90;99.90;;;;;;5021055;28;20066;-65
2022/11/02 00:20:48;;;;;;;6.53;1.48;;;12.90;99.90;;;;;;5021169;28;20071;-64
2022/11/02 00:23:14;;;;;;;5.47;1.35;;;12.90;99.90;;;;;;5021283;28;20045;-66
2022/11/02 00:25:46;;;;;;;5.07;1.33;;;12.90;99.90;;;;;;5021628;28;20436;-65
2022/11/02 00:28:13;;;;;;;4.85;1.52;;;12.80;99.90;;;;;;5020209;28;20045;-66
2022/11/02 00:30:38;;;;;;;8.52;2.30;;;12.80;99.90;;;;;;5021809;28;20038;-67
2022/11/02 00:33:04;;;;;;;6.10;1.48;;;12.70;99.90;;;;;;5022767;28;20042;-66
2022/11/02 00:35:30;;;;;;;6.20;1.05;;;12.60;99.90;;;;;;5020449;28;20045;-65
2022/11/02 00:37:56;;;;;;;12.23;1.92;;;12.50;99.90;;;;;;5021572;28;20095;-64
2022/11/02 00:40:21;;;;;;;8.60;1.80;;;12.50;99.90;;;;;;5021048;28;20124;-66
2022/11/02 00:42:47;;;;;;;6.53;1.60;;;12.60;99.90;;;;;;5021037;28;20080;-65
2022/11/02 00:45:12;;;;;;;7.18;1.77;;;12.60;99.90;;;;;;5020769;28;20073;-64
2022/11/02 00:47:38;;;;;;;8.68;2.25;;;12.60;99.90;;;;;;5021984;28;20721;-66
2022/11/02 00:50:04;;;;;;;5.03;1.60;;;12.60;99.90;;;;;;5020141;28;20140;-64
2022/11/02 00:52:30;;;;;;;8.45;1.90;;;12.60;99.90;;;;;;5020883;28;20179;-65
2022/11/02 00:54:56;;;;;;;7.22;1.50;;;12.70;99.90;;;;;;5021629;28;20538;-66
2022/11/02 00:57:21;;;;;;;9.02;2.00;;;12.60;99.90;;;;;;5022116;28;20095;-64
2022/11/02 00:59:47;;;;;;;7.82;1.83;;;12.60;99.90;;;;;;5023897;28;20623;-65
2022/11/02 01:02:13;;;;;;;9.95;1.98;;;12.60;99.90;;;;;;5006671;28;20046;-65
2022/11/02 01:04:39;;;;;;;8.85;1.75;;;12.50;99.90;;;;;;5024858;28;20052;-64
2022/11/02 01:07:05;;;;;;;8.82;2.03;;;12.40;99.90;;;;;;5024251;28;20041;-66
2022/11/02 01:09:30;;;;;;;10.07;1.73;;;12.40;99.90;;;;;;5023584;28;20045;-65
2022/11/02 01:11:56;;;;;;;9.30;1.90;;;12.20;99.90;;;;;;5024115;28;20041;-65
2022/11/02 01:14:22;;;;;;;10.20;1.85;;;12.10;99.90;;;;;;5024469;28;20041;-65
2022/11/02 01:16:48;;;;;;;9.05;2.20;;;12.20;99.90;;;;;;5006450;28;20052;-65
2022/11/02 01:19:13;;;;;;;10.23;2.28;;;11.70;99.90;;;;;;5023467;28;20057;-67
2022/11/02 01:21:39;;;;;;;4.90;0.98;;;11.50;99.90;;;;;;5023508;28;20057;-66
2022/11/02 01:24:05;;;;;;;3.50;0.95;;;11.10;99.90;;;;;;5024255;28;20045;-64
2022/11/02 01:26:31;;;;;;;3.65;0.73;;;11.00;99.90;;;;;;5023534;28;20080;-64
2022/11/02 01:28:57;;;;;;;5.00;0.93;;;11.00;99.90;;;;;;5022944;28;20500;-64
2022/11/02 01:31:22;;;;;;;3.28;0.75;;;11.00;99.90;;;;;;5023587;28;20435;-66
2022/11/02 01:33:48;;;;;;;2.45;0.88;;;11.00;99.90;;;;;;5024107;28;20076;-64
2022/11/02 01:36:19;;;;;;;3.45;0.90;;;10.90;99.90;;;;;;5022622;28;20030;-64
2022/11/02 01:38:46;;;;;;;2.42;0.70;;;10.80;99.90;;;;;;5023923;28;20049;-65
2022/11/02 01:41:12;;;;;;;5.78;1.25;;;10.90;99.90;;;;;;5024124;28;20052;-68
2022/11/02 01:43:41;;;;;;;7.03;1.38;;;10.60;99.90;;;;;;5023999;28;20049;-65
2022/11/02 01:46:19;;;;;;;4.28;0.90;;;10.80;99.90;;;;;;5005920;28;20052;-64
2022/11/02 01:48:50;;;;;;;5.15;0.95;;;10.60;99.90;;;;;;5023740;28;20045;-67
2022/11/02 01:51:24;;;;;;;3.60;0.80;;;10.80;99.90;;;;;;5004380;28;20053;-64
2022/11/02 01:53:52;;;;;;;4.13;0.87;;;10.70;99.90;;;;;;5006401;28;20148;-65
2022/11/02 01:56:21;;;;;;;4.22;1.05;;;10.60;99.90;;;;;;5023893;28;20045;-67
2022/11/02 01:58:54;;;;;;;4.70;1.40;;;10.80;99.90;;;;;;5005101;28;20064;-64
2022/11/02 02:01:20;;;;;;;7.75;1.60;;;10.60;99.90;;;;;;5023705;28;20608;-64
2022/11/02 02:03:48;;;;;;;6.18;1.40;;;10.80;99.90;;;;;;5024030;28;20219;-66
2022/11/02 02:06:14;;;;;;;2.70;1.08;;;10.70;99.90;;;;;;5022444;28;20041;-67
2022/11/02 02:08:44;;;;;;;8.02;1.67;;;10.90;99.90;;;;;;5023952;28;20064;-64
2022/11/02 02:11:28;;;;;;;7.95;2.15;;;10.70;99.90;;;;;;5022646;28;20049;-66
2022/11/02 02:14:07;;;;;;;8.05;1.70;;;10.80;99.90;;;;;;5023988;28;20084;-64
2022/11/02 02:16:38;;;;;;;7.25;1.88;;;10.80;99.90;;;;;;5023325;28;20042;-65
2022/11/02 02:19:17;;;;;;;3.75;1.27;;;10.80;99.90;;;;;;5022823;28;20428;-64
2022/11/02 02:22:06;;;;;;;6.45;2.20;;;11.00;99.90;;;;;;5005871;28;20045;-64
2022/11/02 02:24:48;;;;;;;7.90;1.92;;;10.90;99.90;;;;;;5016491;28;20070;-67
2022/11/02 02:27:40;;;;;;;7.47;2.10;;;11.10;99.90;;;;;;5004425;28;20436;-64
2022/11/02 02:30:10;;;;;;;8.50;2.40;;;11.00;99.90;;;;;;5002266;28;20124;-64
2022/11/02 02:32:49;;;;;;;8.45;2.10;;;11.20;99.90;;;;;;5003727;28;20037;-65
2022/11/02 02:35:32;;;;;;;7.88;2.15;;;11.20;99.90;;;;;;5004725;28;20045;-67
2022/11/02 02:38:00;;;;;;;10.35;2.78;;;11.20;99.90;;;;;;5023711;28;20072;-64
2022/11/02 02:40:38;;;;;;;11.23;2.70;;;11.10;99.90;;;;;;5022551;28;20056;-67
2022/11/02 02:43:19;;;;;;;8.52;2.40;;;11.20;99.90;;;;;;5005437;28;20088;-65
2022/11/02 02:45:45;;;;;;;6.88;2.05;;;11.40;99.90;;;;;;5005470;28;20100;-64
2022/11/02 02:48:19;;;;;;;12.15;2.78;;;11.30;99.90;;;;;;5023088;28;20519;-65
2022/11/02 02:50:55;;;;;;;9.57;1.77;;;11.20;99.90;;;;;;5023198;28;20049;-66
2022/11/02 02:53:32;;;;;;;11.65;2.28;;;11.40;99.90;;;;;;5004818;28;20056;-65
2022/11/02 02:56:01;;;;;;;5.63;1.65;;;11.40;99.90;;;;;;5022921;28;20462;-65
2022/11/02 02:58:36;;;;;;;10.10;2.78;;;11.40;99.90;;;;;;5022064;28;20056;-65
2022/11/02 03:01:05;;;;;;;10.30;2.70;;;11.30;99.90;;;;;;5022675;28;20045;-67
2022/11/02 03:03:33;;;;;;;10.25;2.33;;;11.40;99.90;;;;;;5022663;28;20091;-66
2022/11/02 03:06:23;;;;;;;11.32;2.33;;;11.40;99.90;;;;;;5020044;28;20084;-66
2022/11/02 03:09:17;;;;;;;10.23;2.60;;;11.40;99.90;;;;;;5003917;28;20132;-66
2022/11/02 03:11:48;;;;;;;8.82;2.28;;;11.60;99.90;;;;;;4969491;28;20057;-66
2022/11/02 03:14:32;;;;;;;9.43;2.30;;;11.40;99.90;;;;;;4985992;28;20100;-64
2022/11/02 03:17:10;;;;;;;6.18;1.90;;;11.50;99.90;;;;;;5002612;28;20113;-67
2022/11/02 03:20:02;;;;;;;6.80;1.90;;;11.40;99.90;;;;;;4984446;28;20069;-65
2022/11/02 03:23:01;;;;;;;5.00;1.55;;;11.50;99.90;;;;;;4965745;28;20042;-66
2022/11/02 03:25:59;;;;;;;10.52;1.90;;;11.50;99.90;;;;;;5001985;28;20045;-65
2022/11/02 03:28:37;;;;;;;6.03;1.83;;;11.60;99.90;;;;;;4997822;28;20136;-66
2022/11/02 03:31:15;;;;;;;4.43;1.27;;;11.50;99.90;;;;;;5002737;28;20543;-65
2022/11/02 03:34:12;;;;;;;5.50;1.38;;;11.50;99.90;;;;;;5002283;28;20432;-66
2022/11/02 03:36:58;;;;;;;3.03;1.02;;;11.30;99.90;;;;;;4984786;28;20065;-67
2022/11/02 03:39:39;;;;;;;7.30;1.88;;;11.40;99.90;;;;;;5002276;28;20065;-64
2022/11/02 03:42:08;;;;;;;4.43;1.30;;;11.30;99.90;;;;;;5002342;28;20408;-65
2022/11/02 03:44:37;;;;;;;6.10;1.73;;;11.30;99.90;;;;;;5001596;28;20084;-64
2022/11/02 03:47:06;;;;;;;6.60;1.73;;;11.30;99.90;;;;;;4984837;28;20046;-66
2022/11/02 03:49:33;;;;;;;4.65;1.40;;;11.40;99.90;;;;;;5001874;28;20052;-64
2022/11/02 03:52:04;;;;;;;5.80;1.50;;;11.20;99.90;;;;;;5000926;28;20041;-66
2022/11/02 03:54:46;;;;;;;5.45;1.35;;;11.20;99.90;;;;;;5002653;28;20049;-64
2022/11/02 03:57:21;;;;;;;5.93;1.45;;;11.30;99.90;;;;;;5001170;28;20054;-66
2022/11/02 03:59:46;;;;;;;4.47;1.30;;;11.30;99.90;;;;;;5002542;28;20073;-65
2022/11/02 04:02:14;;;;;;;7.85;1.88;;;11.20;99.90;;;;;;5001402;28;20073;-66
2022/11/02 04:04:50;;;;;;;4.90;1.30;;;11.20;99.90;;;;;;5004761;28;20037;-65
2022/11/02 04:07:26;;;;;;;3.72;1.00;;;11.30;99.90;;;;;;5003897;28;20081;-64
2022/11/02 04:09:52;;;;;;;9.40;1.80;;;11.20;99.90;;;;;;5021762;28;20037;-65
2022/11/02 04:15:02;;;;;;;6.93;1.88;;;11.30;99.90;;;;;;5021456;28;20041;-64
2022/11/02 04:20:12;;;;;;;7.80;2.00;;;11.20;99.90;;;;;;5020405;28;20063;-65
2022/11/02 04:25:21;;;;;;;5.45;1.10;;;11.20;99.90;;;;;;5006674;28;20065;-67
2022/11/02 04:27:49;;;;;;;4.57;1.27;;;11.20;99.90;;;;;;5023101;28;20045;-64
2022/11/02 04:30:17;;;;;;;5.00;1.00;;;11.00;99.90;;;;;;5021214;28;20545;-67
2022/11/02 04:35:30;;;;;;;8.23;1.33;;;11.10;99.90;;;;;;5025316;28;20053;-66
2022/11/02 04:40:41;;;;;;;4.05;1.02;;;11.00;99.90;;;;;;5025298;28;20061;-66
2022/11/02 04:43:06;;;;;;;7.25;1.42;;;10.90;99.90;;;;;;5006931;28;20046;-66
2022/11/02 04:45:32;;;;;;;4.65;1.27;;;10.90;99.90;;;;;;5025586;28;20042;-65
2022/11/02 04:48:03;;;;;;;11.10;1.63;;;10.90;99.90;;;;;;5007303;28;20084;-66
2022/11/02 04:50:29;;;;;;;5.60;1.40;;;11.00;99.90;;;;;;5006765;28;20088;-64
2022/11/02 04:53:00;;;;;;;6.50;1.63;;;11.10;99.90;;;;;;5024098;28;20049;-66
2022/11/02 04:55:26;;;;;;;4.97;1.17;;;11.00;99.90;;;;;;5025789;28;20033;-65
2022/11/02 04:57:52;;;;;;;4.03;0.82;;;11.00;99.90;;;;;;5024788;28;20052;-66
2022/11/02 05:00:19;;;;;;;8.80;1.00;;;11.10;99.90;;;;;;5024350;28;20037;-64
2022/11/02 05:02:46;;;;;;;4.10;0.88;;;11.00;99.90;;;;;;5024826;28;20754;-65
2022/11/02 05:05:12;;;;;;;9.32;1.95;;;11.10;99.90;;;;;;5023445;28;20042;-65
2022/11/02 05:07:38;;;;;;;3.63;0.98;;;11.00;99.90;;;;;;5025360;28;20049;-65
2022/11/02 05:10:04;;;;;;;4.00;1.27;;;11.00;99.90;;;;;;5024848;28;20459;-66
2022/11/02 05:12:30;;;;;;;3.85;1.02;;;11.00;99.90;;;;;;5025797;28;20048;-65
2022/11/02 05:14:56;;;;;;;7.32;1.42;;;10.90;99.90;;;;;;5025266;28;20268;-65
2022/11/02 05:17:21;;;;;;;6.00;1.30;;;10.90;99.90;;;;;;5024269;28;20463;-64
2022/11/02 05:19:47;;;;;;;7.32;1.92;;;10.90;99.90;;;;;;5023742;28;20053;-65
2022/11/02 05:22:13;;;;;;;6.55;1.60;;;10.90;99.90;;;;;;5024164;28;20158;-66
2022/11/02 05:24:39;;;;;;;8.20;1.63;;;10.80;99.90;;;;;;5025344;28;20038;-64
2022/11/02 05:27:05;;;;;;;6.10;1.52;;;10.90;99.90;;;;;;5023779;28;20084;-66
2022/11/02 05:29:30;;;;;;;7.35;1.65;;;10.90;99.90;;;;;;5024495;28;20033;-64
2022/11/02 05:31:57;;;;;;;6.18;1.20;;;10.80;99.90;;;;;;5024826;28;20041;-66
2022/11/02 05:34:22;;;;;;;10.98;1.92;;;10.90;99.90;;;;;;5005357;28;20053;-65
2022/11/02 05:36:48;;;;;;;8.82;2.10;;;10.90;99.90;;;;;;5007098;28;20042;-67
2022/11/02 05:39:14;;;;;;;9.02;1.63;;;10.90;99.90;;;;;;5025262;28;20048;-65
2022/11/02 05:41:40;;;;;;;6.90;1.48;;;10.80;99.90;;;;;;5006623;28;20547;-66
2022/11/02 05:44:05;;;;;;;6.75;1.20;;;10.90;99.90;;;;;;5022897;28;20041;-66
2022/11/02 05:46:32;;;;;;;11.65;2.17;;;10.90;99.90;;;;;;5024184;28;20049;-65
2022/11/02 05:48:58;;;;;;;14.98;2.53;;;10.80;99.90;;;;;;5006060;28;20187;-65
2022/11/02 05:51:23;;;;;;;7.38;1.70;;;10.70;99.90;;;;;;5023555;28;20184;-66
2022/11/02 05:53:49;;;;;;;12.07;2.47;;;10.60;99.90;;;;;;5023120;28;20045;-66
2022/11/02 05:56:15;;;;;;;9.95;2.38;;;10.60;99.90;;;;;;5005945;28;20044;-64
2022/11/02 05:58:40;;;;;;;9.68;2.60;;;10.60;99.90;;;;;;5024948;28;20721;-65
2022/11/02 06:01:07;;;;;;;13.38;2.63;;;10.50;99.90;;;;;;5004968;28;20069;-65
2022/11/02 06:03:33;;;;;;;12.70;2.75;;;10.60;99.90;;;;;;5023610;28;20107;-64
2022/11/02 06:06:01;;;;;;;7.32;1.85;;;10.70;99.90;;;;;;5022781;28;20064;-66
2022/11/02 06:08:28;;;;;;;11.13;2.65;;;10.60;99.90;;;;;;5024906;28;20041;-64
2022/11/02 06:10:53;;;;;;;7.70;1.95;;;10.70;99.90;;;;;;5023459;28;20045;-66
2022/11/02 06:13:19;;;;;;;11.48;2.35;;;10.80;99.90;;;;;;5022297;28;20434;-65
2022/11/02 06:15:45;;;;;;;11.05;2.55;;;10.80;99.90;;;;;;5006524;28;20100;-64
2022/11/02 06:18:11;;;;;;;6.13;1.50;;;10.80;99.90;;;;;;5023414;28;20057;-66
2022/11/02 06:20:37;;;;;;;10.85;2.88;;;10.70;99.90;;;;;;5023508;28;20057;-64
2022/11/02 06:23:02;;;;;;;7.35;2.00;;;10.80;99.90;;;;;;5023986;28;20396;-66
2022/11/02 06:25:28;;;;;;;10.55;2.15;;;10.70;99.90;;;;;;5024198;28;20072;-65
2022/11/02 06:27:55;;;;;;;5.10;1.48;;;10.70;99.90;;;;;;5023268;28;20048;-64
2022/11/02 06:30:25;;;;;;;8.52;1.80;;;10.70;99.90;;;;;;5023291;28;20397;-66
2022/11/02 06:32:53;;;;;;;6.50;1.65;;;10.70;99.90;;;;;;5024323;28;20049;-65
2022/11/02 06:35:20;;;;;;;5.03;1.05;;;10.80;99.90;;;;;;5021291;28;20705;-65
2022/11/02 06:37:46;;;;;;;7.50;1.30;;;11.00;99.90;;;;;;5023518;28;20053;-65
2022/11/02 06:40:13;;;;;;;8.52;1.90;;;10.80;99.90;;;;;;5023076;28;20428;-66
2022/11/02 06:42:39;;;;;;;12.40;2.15;;;10.70;99.90;;;;;;5023078;28;20033;-65
2022/11/02 06:45:05;;;;;;;7.25;1.52;;;10.60;99.90;;;;;;5021646;28;20056;-64
2022/11/02 06:47:33;;;;;;;6.22;1.90;;;10.70;99.90;;;;;;5022327;28;20435;-65
2022/11/02 06:49:59;;;;;;;13.07;2.85;;;10.60;99.90;;;;;;5022529;28;20051;-65
2022/11/02 06:52:25;;;;;;;9.82;2.05;;;10.70;99.90;;;;;;5021114;28;20137;-67
2022/11/02 06:54:51;;;;;;;7.82;1.63;;;10.70;99.90;;;;;;5022341;28;20045;-64
2022/11/02 06:57:17;;;;;;;8.35;1.75;;;10.80;99.90;;;;;;5003825;28;20127;-66
2022/11/02 06:59:42;;;;;;;7.45;1.92;;;10.70;99.90;;;;;;5021613;28;20110;-64
2022/11/02 07:02:08;;;;;;;8.20;2.05;;;10.80;99.90;;;;;;5021621;28;20084;-64
2022/11/02 07:04:34;;;;;;;13.48;2.80;;;11.00;99.90;;;;;;5022074;28;20038;-65
2022/11/02 07:07:00;;;;;;;13.18;2.50;;;10.90;99.90;;;;;;5005552;28;20044;-64
2022/11/02 07:09:25;;;;;;;7.80;2.15;;;10.90;99.90;;;;;;5022757;28;20041;-65
2022/11/02 07:11:51;;;;;;;10.10;2.53;;;10.80;99.90;;;;;;5023427;28;20045;-66
2022/11/02 07:14:17;;;;;;;14.20;3.20;;;10.80;99.90;;;;;;5004919;28;20053;-64
2022/11/02 07:16:42;;;;;;;8.95;2.47;;;10.80;99.90;;;;;;5022843;28;20037;-66
2022/11/02 07:19:08;;;;;;;12.55;3.05;;;10.90;99.90;;;;;;5021614;28;20054;-66
2022/11/02 07:21:34;;;;;;;11.50;2.13;;;10.80;99.90;;;;;;5022704;28;20048;-64
2022/11/02 07:24:00;;;;;;;9.30;2.13;;;10.70;99.90;;;;;;5022846;28;20048;-65
2022/11/02 07:26:26;;;;;;;8.77;1.90;;;10.80;99.90;;;;;;5021841;28;20049;-65
2022/11/02 07:28:51;;;;;;;9.43;2.40;;;10.80;99.90;;;;;;5021212;28;20079;-65
2022/11/02 07:31:17;;;;;;;9.65;2.03;;;11.00;99.90;;;;;;5021635;28;20029;-65
2022/11/02 07:33:43;;;;;;;13.43;2.40;;;10.80;99.90;;;;;;5020543;28;20090;-64
2022/11/02 07:36:08;;;;;;;10.10;2.20;;;10.70;99.90;;;;;;5020594;28;20037;-65
2022/11/02 07:38:34;;;;;;;11.05;2.67;;;10.70;99.90;;;;;;5021261;28;20177;-65
2022/11/02 07:41:00;;;;;;;10.50;2.28;;;10.80;99.90;;;;;;5022387;28;20449;-66
2022/11/02 07:43:25;;;;;;;8.90;1.95;;;10.90;99.90;;;;;;5021222;28;20451;-65
2022/11/02 07:45:51;;;;;;;8.63;2.17;;;11.00;99.90;;;;;;5022185;28;20072;-65
2022/11/02 07:48:17;;;;;;;13.07;2.80;;;10.90;99.90;;;;;;5021307;28;20041;-65
2022/11/02 07:50:43;;;;;;;14.43;3.08;;;11.00;99.90;;;;;;5021760;28;20045;-64
2022/11/02 07:53:09;;;;;;;12.52;2.58;;;11.10;99.90;;;;;;5021408;28;20038;-66
2022/11/02 07:55:34;;;;;;;9.85;2.20;;;11.00;99.90;;;;;;5021056;28;20049;-66
2022/11/02 07:58:06;;;;;;;11.07;2.40;;;11.00;99.90;;;;;;5021811;28;20045;-63
2022/11/02 08:00:36;;;;;;;11.15;3.00;;;11.00;99.90;;;;;;5022340;28;20081;-66
2022/11/02 08:03:03;;;;;;;12.38;2.88;;;10.90;99.90;;;;;;5019135;28;20132;-64
2022/11/02 08:05:30;;;;;;;13.52;3.28;;;10.80;99.90;;;;;;5020008;28;20037;-65
2022/11/02 08:08:04;;;;;;;12.65;2.95;;;10.90;99.90;;;;;;5022883;28;20146;-63
2022/11/02 08:10:31;;;;;;;9.38;2.35;;;10.90;99.90;;;;;;5025297;28;20080;-63
2022/11/02 08:12:56;;;;;;;11.05;2.45;;;11.00;99.90;;;;;;5008803;28;20176;-64
2022/11/02 08:15:22;;;;;;;10.45;1.80;;;10.90;99.90;;;;;;5024896;28;20539;-64
2022/11/02 08:17:59;;;;;;;10.95;2.47;;;11.00;99.90;;;;;;5024871;28;20391;-64
2022/11/02 08:20:26;;;;;;;16.70;2.92;;;11.00;99.90;;;;;;5004205;28;20058;-63
2022/11/02 08:22:52;;;;;;;12.40;2.45;;;10.90;99.90;;;;;;5006500;28;20111;-64
2022/11/02 08:25:17;;;;;;;11.27;2.20;;;11.00;99.90;;;;;;5005011;28;20477;-63
2022/11/02 08:27:43;;;;;;;12.43;2.63;;;11.10;99.90;;;;;;5006365;28;20050;-64
2022/11/02 08:30:10;;;;;;;12.93;2.53;;;11.20;99.90;;;;;;5008552;28;20046;-64
2022/11/02 08:32:35;;;;;;;10.70;2.05;;;11.10;99.90;;;;;;5007428;28;20045;-64
2022/11/02 08:35:01;;;;;;;10.60;2.40;;;11.20;99.90;;;;;;5003982;28;20072;-65
2022/11/02 08:37:27;;;;;;;7.50;1.52;;;11.20;99.90;;;;;;5006271;28;20057;-63
2022/11/02 08:39:52;;;;;;;11.30;2.05;;;11.20;99.90;;;;;;4988487;28;20038;-66
2022/11/02 08:42:18;;;;;;;8.23;1.80;;;11.40;99.90;;;;;;5005553;28;20049;-63
2022/11/02 08:44:43;;;;;;;11.25;1.95;;;11.50;99.90;;;;;;5005729;28;20518;-65
2022/11/02 08:47:09;;;;;;;8.05;1.70;;;11.40;99.90;;;;;;5005746;28;20050;-63
2022/11/02 08:49:35;;;;;;;10.10;2.92;;;11.50;99.90;;;;;;5005010;28;20034;-66
2022/11/02 08:52:00;;;;;;;10.23;1.95;;;11.60;99.90;;;;;;5004339;28;20473;-64
2022/11/02 08:54:26;;;;;;;9.45;2.20;;;11.60;99.90;;;;;;5004226;28;20038;-65
2022/11/02 08:56:52;;;;;;;5.32;1.30;;;11.50;99.90;;;;;;5005461;28;20038;-64
2022/11/02 08:59:17;;;;;;;9.25;1.67;;;11.50;99.90;;;;;;4987323;28;20054;-64
2022/11/02 09:01:43;;;;;;;9.05;2.05;;;11.50;99.90;;;;;;5004455;28;20037;-63
2022/11/02 09:04:09;;;;;;;9.50;2.50;;;11.60;99.90;;;;;;5003246;28;20132;-64
2022/11/02 09:06:34;;;;;;;6.50;1.58;;;11.70;99.90;;;;;;4999636;28;20530;-65
2022/11/02 09:09:00;;;;;;;8.43;2.47;;;11.70;99.90;;;;;;5004356;28;20504;-66
2022/11/02 09:11:26;;;;;;;8.68;1.77;;;12.00;99.90;;;;;;5004951;28;20046;-65
2022/11/02 09:13:51;;;;;;;9.10;2.03;;;12.10;99.90;;;;;;5004654;28;20125;-64
2022/11/02 09:16:17;;;;;;;7.25;1.67;;;12.30;99.90;;;;;;5003402;28;20069;-65
2022/11/02 09:18:42;;;;;;;9.48;2.10;;;12.30;99.90;;;;;;5008292;28;20050;-64
2022/11/02 09:21:08;;;;;;;8.00;1.80;;;12.40;99.90;;;;;;5024439;28;20053;-68
2022/11/02 09:23:34;;;;;;;8.27;1.95;;;12.50;99.90;;;;;;5024228;28;20045;-65
2022/11/02 09:25:59;;;;;;;11.98;1.50;;;12.80;99.90;;;;;;5024193;28;20095;-66
2022/11/02 09:28:25;;;;;;;7.00;1.50;;;13.00;99.90;;;;;;5024170;28;20465;-65
2022/11/02 09:30:51;;;;;;;9.18;1.80;;;13.00;99.90;;;;;;5024962;28;20405;-66
2022/11/02 09:33:17;;;;;;;7.35;2.00;;;13.10;99.90;;;;;;5024220;28;20060;-66
2022/11/02 09:35:46;;;;;;;6.07;1.60;;;13.10;99.90;;;;;;5006123;28;20124;-66
2022/11/02 09:38:13;;;;;;;9.85;1.73;;;13.20;99.90;;;;;;5006361;28;20081;-66
2022/11/02 09:40:43;;;;;;;8.35;1.85;;;13.00;99.90;;;;;;5023959;28;20064;-66
2022/11/02 09:43:25;;;;;;;9.00;1.55;;;12.80;99.90;;;;;;5024160;28;20056;-66
2022/11/02 09:45:52;;;;;;;7.20;1.33;;;13.00;99.90;;;;;;5024099;28;20049;-65
2022/11/02 09:48:25;;;;;;;8.13;2.17;;;13.30;99.90;;;;;;5005727;28;20045;-66
2022/11/02 09:51:16;;;;;;;6.00;1.65;;;13.40;99.90;;;;;;5023622;28;20128;-66
2022/11/02 09:53:48;;;;;;;8.40;1.92;;;13.00;99.90;;;;;;5006051;28;20041;-65
2022/11/02 09:56:18;;;;;;;7.85;1.50;;;13.00;99.90;;;;;;5023152;28;20052;-66
2022/11/02 09:58:50;;;;;;;6.35;1.58;;;12.80;99.90;;;;;;5024197;28;20124;-62
2022/11/02 10:01:21;;;;;;;8.55;1.38;;;12.70;99.90;;;;;;5023968;28;20042;-66
2022/11/02 10:04:15;;;;;;;7.70;1.77;;;13.00;99.90;;;;;;5024206;28;20408;-66
2022/11/02 10:06:47;;;;;;;8.02;1.73;;;12.90;99.90;;;;;;4997239;28;20874;-66
2022/11/02 10:09:32;;;;;;;11.07;1.77;;;12.80;99.90;;;;;;5006733;28;20049;-66
2022/11/02 10:12:00;;;;;;;9.23;1.90;;;12.70;99.90;;;;;;5024678;28;20052;-67
2022/11/02 10:14:36;;;;;;;7.72;1.58;;;12.80;99.90;;;;;;5024509;28;20046;-66
2022/11/02 10:17:14;;;;;;;7.15;1.50;;;12.90;99.90;;;;;;5024527;28;20045;-66
2022/11/02 10:19:43;;;;;;;9.98;1.75;;;13.50;99.90;;;;;;5023003;28;20119;-66
2022/11/02 10:22:13;;;;;;;6.80;1.52;;;14.10;99.90;;;;;;5024086;28;20038;-67
2022/11/02 10:24:42;;;;;;;7.30;1.40;;;14.30;99.90;;;;;;5024873;28;20049;-67
2022/11/02 10:27:26;;;;;;;6.55;1.15;;;14.40;99.90;;;;;;5023310;28;20500;-66
2022/11/02 10:29:54;;;;;;;7.70;1.60;;;14.40;99.90;;;;;;5023016;28;20049;-67
2022/11/02 10:32:19;;;;;;;9.73;1.63;;;14.60;99.90;;;;;;5022906;28;20045;-67
2022/11/02 10:34:46;;;;;;;4.97;1.42;;;14.90;99.90;;;;;;5022923;28;20065;-66
2022/11/02 10:37:42;;;;;;;5.53;1.55;;;14.80;99.90;;;;;;5024115;28;20743;-67
2022/11/02 10:40:35;;;;;;;3.85;1.05;;;14.70;99.90;;;;;;4989858;28;20049;-66
2022/11/02 10:43:09;;;;;;;6.90;1.50;;;14.60;99.90;;;;;;5022531;28;20085;-66
2022/11/02 10:45:53;;;;;;;5.82;1.30;;;14.80;99.90;;;;;;5023471;28;20065;-66
2022/11/02 10:48:47;;;;;;;6.40;1.48;;;14.80;99.90;;;;;;5022381;28;20049;-67
2022/11/02 10:51:14;;;;;;;7.63;1.40;;;14.70;99.90;;;;;;5023616;28;20425;-68
2022/11/02 10:53:51;;;;;;;7.43;1.48;;;14.70;99.90;;;;;;5023046;28;20095;-67
2022/11/02 10:56:22;;;;;;;4.93;1.10;;;13.90;99.90;;;;;;5005562;28;20045;-67
2022/11/02 10:59:13;;;;;;;11.30;2.15;;;14.00;99.90;;;;;;5023452;28;20115;-67
2022/11/02 11:01:46;;;;;;;7.63;1.58;;;14.00;99.90;;;;;;5023572;28;20080;-66
2022/11/02 11:04:29;;;;;;;5.65;1.10;;;14.40;99.90;;;;;;5021952;28;20129;-66
2022/11/02 11:06:57;;;;;;;7.47;1.67;;;14.10;99.90;;;;;;5022840;28;20042;-67
2022/11/02 11:09:25;;;;;;;7.30;1.80;;;13.90;99.90;;;;;;5023166;28;20042;-67
2022/11/02 11:12:05;;;;;;;10.50;1.83;;;13.80;99.90;;;;;;5004833;28;20494;-68
2022/11/02 11:14:53;;;;;;;8.50;1.45;;;13.80;99.90;;;;;;5023018;28;20072;-67
2022/11/02 11:17:35;;;;;;;6.85;1.63;;;14.20;99.90;;;;;;5005188;28;20049;-68
2022/11/02 11:20:05;;;;;;;7.28;1.58;;;14.40;99.90;;;;;;5022500;28;20103;-68
2022/11/02 11:22:35;;;;;;;7.60;1.50;;;14.40;99.90;;;;;;5022602;28;20049;-67
2022/11/02 11:25:26;;;;;;;7.85;1.80;;;14.50;99.90;;;;;;5022827;28;20394;-68
2022/11/02 11:27:57;;;;;;;8.35;1.90;;;14.50;99.90;;;;;;5005144;28;20053;-68
2022/11/02 11:30:26;;;;;;;8.18;1.55;;;14.40;99.90;;;;;;5023231;28;20041;-68
2022/11/02 11:32:53;;;;;;;8.20;1.58;;;14.40;99.90;;;;;;5022054;28;20042;-68
2022/11/02 11:35:20;;;;;;;7.53;1.75;;;14.60;99.90;;;;;;5021842;28;20095;-68
2022/11/02 11:37:53;;;;;;;8.90;1.65;;;14.70;99.90;;;;;;5022372;28;20073;-69
2022/11/02 11:40:21;;;;;;;7.40;1.40;;;14.50;99.90;;;;;;5022564;28;20091;-67
2022/11/02 11:42:53;;;;;;;7.65;1.15;;;14.40;99.90;;;;;;5021031;28;20045;-68
2022/11/02 11:45:24;;;;;;;7.28;1.65;;;14.20;99.90;;;;;;5022106;28;20041;-68
2022/11/02 11:47:55;;;;;;;12.35;2.05;;;13.80;99.90;;;;;;5021523;28;20124;-67
2022/11/02 11:50:22;;;;;;;7.65;1.70;;;13.90;99.90;;;;;;5021603;28;20775;-68
2022/11/02 11:53:11;;;;;;;5.60;1.30;;;13.60;99.90;;;;;;5022411;28;20041;-67
2022/11/02 11:55:47;;;;;;;5.25;1.45;;;13.60;99.90;;;;;;5021505;28;20050;-68
2022/11/02 11:58:22;;;;;;;8.23;1.75;;;13.30;99.90;;;;;;5022305;28;20101;-68
2022/11/02 12:01:11;;;;;;;10.55;1.83;;;13.30;99.90;;;;;;5022520;28;20049;-68
2022/11/02 12:03:53;;;;;;;8.55;1.77;;;13.10;99.90;;;;;;5015177;28;20060;-68
2022/11/02 12:06:39;;;;;;;9.68;2.22;;;13.10;99.90;;;;;;5020949;28;20405;-68
2022/11/02 12:09:48;;;;;;;8.00;1.45;;;13.30;99.90;;;;;;5022491;28;20053;-67
2022/11/02 12:12:41;;;;;;;8.93;1.55;;;13.30;99.90;;;;;;5004935;28;20057;-67
2022/11/02 12:15:12;;;;;;;5.97;1.20;;;13.20;99.90;;;;;;5021540;28;20045;-67
2022/11/02 12:18:13;;;;;;;6.25;1.25;;;13.10;99.90;;;;;;5020840;28;20042;-67
2022/11/02 12:20:57;;;;;;;9.65;1.73;;;13.10;99.90;;;;;;4982152;28;20061;-67
2022/11/02 12:23:47;;;;;;;10.17;1.60;;;13.10;99.90;;;;;;5020648;28;20072;-67
2022/11/02 12:27:00;;;;;;;8.93;1.65;;;13.50;99.90;;;;;;5004410;28;20041;-67
2022/11/02 12:29:35;;;;;;;11.32;1.88;;;13.80;99.90;;;;;;5008114;28;20060;-67
2022/11/02 12:32:28;;;;;;;7.22;1.70;;;14.10;99.90;;;;;;5021407;28;20058;-67
2022/11/02 12:35:23;;;;;;;4.60;1.00;;;14.20;99.90;;;;;;5004397;28;20400;-68
2022/11/02 12:38:12;;;;;;;7.65;1.63;;;14.30;99.90;;;;;;5021982;28;20045;-67
2022/11/02 12:40:58;;;;;;;5.43;1.20;;;14.20;99.90;;;;;;5020965;28;20515;-67
2022/11/02 12:43:45;;;;;;;5.72;1.00;;;14.10;99.90;;;;;;5004281;28;20085;-68
2022/11/02 12:46:54;;;;;;;6.53;1.00;;;14.20;99.90;;;;;;5022162;28;20045;-67
2022/11/02 12:49:55;;;;;;;7.65;1.20;;;14.20;99.90;;;;;;5020843;28;20565;-69
2022/11/02 12:52:49;;;;;;;5.80;1.25;;;14.10;99.90;;;;;;5021074;28;20064;-68
2022/11/02 12:55:23;;;;;;;9.95;1.65;;;14.20;99.90;;;;;;5024496;28;20722;-67
2022/11/02 12:57:59;;;;;;;7.68;1.45;;;14.40;99.90;;;;;;5025759;28;20053;-67
2022/11/02 13:00:26;;;;;;;5.90;1.27;;;14.30;99.90;;;;;;5007937;28;20053;-67
2022/11/02 13:03:22;;;;;;;9.00;1.15;;;14.40;99.90;;;;;;5024359;28;20213;-68
2022/11/02 13:05:54;;;;;;;5.25;0.90;;;14.40;99.90;;;;;;5007388;28;20362;-67
2022/11/02 13:08:45;;;;;;;8.68;1.63;;;14.40;99.90;;;;;;5024766;28;20045;-68
2022/11/02 13:11:51;;;;;;;7.13;1.42;;;14.60;99.90;;;;;;5007981;28;20120;-67
2022/11/02 13:14:19;;;;;;;8.05;1.27;;;14.70;99.90;;;;;;5006575;28;20057;-66
2022/11/02 13:16:52;;;;;;;10.07;1.77;;;14.70;99.90;;;;;;5007917;28;20052;-67
2022/11/02 13:19:25;;;;;;;8.63;1.40;;;14.60;99.90;;;;;;4987859;28;20228;-66
2022/11/02 13:21:55;;;;;;;5.93;1.17;;;14.60;99.90;;;;;;5004820;28;20049;-68